Elk Point, Nevada
Current Conditions -  °F | °C
As of 11:53 PM on Saturday 25 Oct 2014 (Local Time) from KTVL Reporting Station
Clear Clear  
Wind Chill: 34°   Ceiling: Unl
Heat Index: 40°   Visibility: 10mi
Dew Point: 25°   Wind: 9mph
Humidity: 55%   Direction: 150°SSE
Pressure: 30.12"   Gusts: 18mph
Location:  39.0164°N, 119.925°W
Report Text: KTVL 260653Z AUTO 15008G16KT 130V200 10SM CLR 04/M04 A3012 RMK AO2 SLP168 T00441039
Loading
Personal Weather Stations






























Interactive Weather Map
Tropical Storm Tracking
New forecast layout! Learn more

10-Day Weather Forecast

Advertisements
Track Severe Weather on mobile